createdAt,value
2023-04-23T00:01:35.583Z,23.00
2023-04-23T00:04:06.758Z,19.00
2023-04-23T00:06:37.799Z,23.75
2023-04-23T00:09:07.837Z,24.75
2023-04-23T00:11:38.809Z,25.50
2023-04-23T00:14:08.506Z,22.75
2023-04-23T00:16:37.941Z,25.25
2023-04-23T00:19:07.042Z,22.40
2023-04-23T00:21:35.746Z,21.80
2023-04-23T00:24:05.152Z,21.50
2023-04-23T00:26:33.701Z,27.00
2023-04-23T00:29:04.052Z,31.75
2023-04-23T00:31:32.859Z,30.25
2023-04-23T00:34:01.810Z,31.00
2023-04-23T00:36:30.449Z,30.75
2023-04-23T00:38:59.379Z,27.25
2023-04-23T00:41:29.452Z,29.25
2023-04-23T00:43:59.404Z,25.00
2023-04-23T00:46:29.380Z,25.00
2023-04-23T00:48:59.538Z,26.50
2023-04-23T00:51:29.522Z,26.25
2023-04-23T00:53:58.462Z,23.00
2023-04-23T00:56:29.204Z,23.40
2023-04-23T00:58:58.693Z,23.00
2023-04-23T01:01:28.356Z,24.25
2023-04-23T01:03:59.814Z,21.25
2023-04-23T01:06:30.129Z,25.25
2023-04-23T01:08:59.456Z,23.25
2023-04-23T01:11:28.596Z,24.75
2023-04-23T01:13:57.892Z,23.80
2023-04-23T01:16:26.543Z,9.00
2023-04-23T01:18:56.937Z,21.20
2023-04-23T01:21:27.418Z,2.00
2023-04-23T01:23:57.728Z,16.40
2023-04-23T01:26:26.876Z,23.00
2023-04-23T01:28:56.201Z,21.25
2023-04-23T01:31:25.400Z,24.50
2023-04-23T01:33:55.394Z,25.50
2023-04-23T01:36:24.475Z,24.00
2023-04-23T01:38:54.289Z,25.00
2023-04-23T01:41:24.269Z,21.00
2023-04-23T01:43:53.619Z,24.50
2023-04-23T01:46:22.673Z,27.00
2023-04-23T01:48:51.826Z,24.50
2023-04-23T01:51:20.794Z,23.50
2023-04-23T01:53:49.828Z,19.25
2023-04-23T01:56:24.013Z,23.40
2023-04-23T01:58:54.415Z,26.25
2023-04-23T02:01:23.097Z,23.20
2023-04-23T02:03:52.190Z,22.75
2023-04-23T02:06:21.089Z,26.50
2023-04-23T02:08:49.997Z,27.50
2023-04-23T02:11:18.578Z,27.00
2023-04-23T02:13:47.425Z,26.25
2023-04-23T02:16:17.456Z,26.00
2023-04-23T02:18:46.489Z,16.75
2023-04-23T02:21:15.255Z,27.75
2023-04-23T02:23:44.440Z,24.75
2023-04-23T02:26:12.967Z,24.40
2023-04-23T02:28:42.040Z,23.75
2023-04-23T02:31:10.636Z,26.60
2023-04-23T02:33:43.654Z,31.75
2023-04-23T02:36:12.337Z,29.75
2023-04-23T02:38:42.546Z,27.25
2023-04-23T02:41:11.350Z,25.25
2023-04-23T02:43:40.374Z,24.50
2023-04-23T02:46:09.603Z,27.75
2023-04-23T02:48:40.324Z,26.00
2023-04-23T02:51:13.467Z,22.25
2023-04-23T02:53:42.728Z,27.40
2023-04-23T02:56:11.442Z,21.00
2023-04-23T02:58:40.618Z,24.20
2023-04-23T03:01:09.366Z,23.40
2023-04-23T03:03:38.794Z,22.80
2023-04-23T03:06:08.417Z,24.20
2023-04-23T03:08:38.621Z,21.80
2023-04-23T03:11:07.501Z,23.00
2023-04-23T03:13:36.490Z,21.60
2023-04-23T03:16:05.189Z,18.60
2023-04-23T03:18:34.085Z,20.20
2023-04-23T03:21:03.177Z,23.75
2023-04-23T03:23:32.290Z,22.60
2023-04-23T03:26:02.302Z,18.60
2023-04-23T03:28:32.056Z,26.20
2023-04-23T03:31:00.704Z,19.40
2023-04-23T03:33:29.681Z,15.00
2023-04-23T03:35:58.464Z,24.25
2023-04-23T03:38:31.587Z,19.50
2023-04-23T03:41:02.706Z,22.00
2023-04-23T03:43:31.684Z,20.25
2023-04-23T03:46:06.791Z,22.00
2023-04-23T03:48:41.089Z,21.00
2023-04-23T03:51:15.025Z,19.50
2023-04-23T03:53:46.752Z,21.50
2023-04-23T03:56:35.308Z,18.50
2023-04-23T03:59:39.223Z,18.50
2023-04-23T04:02:08.144Z,21.25
2023-04-23T04:04:37.815Z,22.00
2023-04-23T04:07:07.765Z,19.75
2023-04-23T04:09:36.706Z,18.50
2023-04-23T04:12:07.570Z,22.00
2023-04-23T04:14:36.613Z,20.50
2023-04-23T04:17:05.539Z,21.75
2023-04-23T04:19:34.544Z,19.75
2023-04-23T04:22:03.795Z,21.00
2023-04-23T04:24:32.793Z,17.25
2023-04-23T04:27:01.767Z,19.25
2023-04-23T04:29:32.367Z,19.25
2023-04-23T04:32:01.449Z,15.25
2023-04-23T04:34:30.428Z,19.25
2023-04-23T04:36:59.118Z,18.00
2023-04-23T04:39:28.340Z,16.25
2023-04-23T04:41:57.527Z,18.75
2023-04-23T04:44:26.452Z,16.50
2023-04-23T04:46:56.634Z,19.00
2023-04-23T04:49:25.929Z,17.50
2023-04-23T04:51:55.234Z,17.25
2023-04-23T04:54:24.153Z,16.75
2023-04-23T04:56:52.747Z,17.50
2023-04-23T04:59:21.632Z,17.75
2023-04-23T05:01:50.373Z,17.25
2023-04-23T05:04:20.733Z,17.75
2023-04-23T05:06:49.388Z,18.25
2023-04-23T05:09:18.410Z,16.50
2023-04-23T05:11:47.158Z,15.00
2023-04-23T05:14:16.108Z,15.50
2023-04-23T05:16:44.933Z,20.75
2023-04-23T05:19:13.841Z,17.50
2023-04-23T05:21:43.838Z,16.75
2023-04-23T05:24:12.790Z,18.25
2023-04-23T05:26:41.341Z,14.40
2023-04-23T05:29:10.549Z,17.50
2023-04-23T05:31:39.269Z,14.00
2023-04-23T05:34:08.144Z,13.50
2023-04-23T05:36:36.871Z,18.25
2023-04-23T05:39:07.157Z,18.00
2023-04-23T05:41:35.972Z,18.00
2023-04-23T05:44:04.907Z,17.00
2023-04-23T05:46:33.511Z,16.50
2023-04-23T05:49:02.477Z,17.50
2023-04-23T05:51:31.174Z,19.00
2023-04-23T05:54:00.397Z,17.50
2023-04-23T05:56:30.339Z,15.20
2023-04-23T05:58:59.375Z,16.60
2023-04-23T06:01:28.931Z,17.25
2023-04-23T06:03:58.070Z,15.00
2023-04-23T06:06:28.057Z,15.20
2023-04-23T06:08:56.966Z,20.25
2023-04-23T06:11:25.618Z,17.80
2023-04-23T06:13:56.665Z,18.25
2023-04-23T06:16:25.765Z,14.00
2023-04-23T06:18:56.309Z,16.50
2023-04-23T06:21:25.150Z,14.80
2023-04-23T06:23:54.706Z,18.00
2023-04-23T06:26:23.288Z,14.60
2023-04-23T06:28:55.507Z,16.00
2023-04-23T06:31:38.248Z,17.60
2023-04-23T06:34:07.198Z,17.25
2023-04-23T06:36:36.001Z,18.25
2023-04-23T06:39:05.190Z,18.40
2023-04-23T06:41:33.807Z,16.50
2023-04-23T06:44:15.445Z,16.50
2023-04-23T06:46:53.686Z,16.50
2023-04-23T06:49:22.845Z,16.00
2023-04-23T06:51:51.516Z,18.75
2023-04-23T06:54:20.482Z,15.60
2023-04-23T06:56:49.199Z,14.40
2023-04-23T06:59:19.686Z,18.00
2023-04-23T07:01:52.172Z,16.20
2023-04-23T07:04:21.329Z,15.40
2023-04-23T07:06:50.149Z,15.40
2023-04-23T07:09:19.043Z,16.75
2023-04-23T07:11:47.902Z,17.00
2023-04-23T07:14:16.852Z,14.20
2023-04-23T07:16:46.968Z,15.40
2023-04-23T07:19:15.870Z,15.40
2023-04-23T07:21:44.489Z,16.50
2023-04-23T07:24:13.335Z,15.40
2023-04-23T07:26:41.950Z,16.00
2023-04-23T07:29:11.652Z,15.80
2023-04-23T07:31:42.602Z,15.75
2023-04-23T07:34:13.000Z,12.40
2023-04-23T07:36:41.709Z,16.20
2023-04-23T07:39:11.180Z,12.20
2023-04-23T07:41:39.940Z,15.60
2023-04-23T07:44:08.960Z,15.20
2023-04-23T07:46:37.681Z,15.40
2023-04-23T07:49:07.551Z,13.80
2023-04-23T07:51:37.713Z,14.20
2023-04-23T07:54:06.739Z,14.40
2023-04-23T07:56:36.477Z,17.60
2023-04-23T07:59:05.960Z,17.60
2023-04-23T08:01:34.906Z,18.40
2023-04-23T08:04:04.453Z,15.80
2023-04-23T08:06:35.520Z,15.60
2023-04-23T08:09:07.183Z,13.60
2023-04-23T08:11:35.895Z,15.80
2023-04-23T08:14:04.802Z,15.20
2023-04-23T08:16:33.940Z,14.60
2023-04-23T08:19:06.419Z,13.60
2023-04-23T08:21:37.673Z,15.40
2023-04-23T08:24:09.068Z,13.60
2023-04-23T08:26:37.725Z,18.00
2023-04-23T08:29:08.199Z,11.00
2023-04-23T08:31:38.511Z,8.80
2023-04-23T08:34:07.553Z,16.60
2023-04-23T08:36:36.244Z,14.20
2023-04-23T08:39:06.075Z,14.40
2023-04-23T08:41:40.802Z,15.60
2023-04-23T08:44:15.082Z,15.00
2023-04-23T08:46:45.820Z,15.80
2023-04-23T08:49:17.375Z,11.60
2023-04-23T08:51:51.062Z,13.60
2023-04-23T08:54:25.700Z,11.80
2023-04-23T08:56:57.727Z,12.40
2023-04-23T08:59:27.706Z,15.40
2023-04-23T09:01:57.038Z,10.40
2023-04-23T09:04:26.863Z,13.75
2023-04-23T09:06:56.991Z,13.40
2023-04-23T09:09:29.215Z,14.80
2023-04-23T09:11:59.619Z,14.20
2023-04-23T09:14:28.489Z,15.60
2023-04-23T09:16:57.232Z,13.40
2023-04-23T09:19:28.442Z,10.80
2023-04-23T09:21:57.530Z,16.50
2023-04-23T09:24:27.223Z,14.25
2023-04-23T09:26:56.948Z,13.40
2023-04-23T09:29:27.285Z,16.50
2023-04-23T09:31:57.360Z,15.00
2023-04-23T09:34:27.796Z,15.00
2023-04-23T09:36:56.558Z,13.80
2023-04-23T09:39:25.785Z,16.00
2023-04-23T09:41:54.719Z,15.20
2023-04-23T09:44:24.050Z,13.60
2023-04-23T09:46:54.159Z,14.40
2023-04-23T09:49:23.782Z,15.60
2023-04-23T09:51:52.353Z,16.00
2023-04-23T09:54:25.067Z,15.60
2023-04-23T09:56:57.122Z,13.60
2023-04-23T09:59:46.883Z,17.40
2023-04-23T10:02:18.997Z,13.40
2023-04-23T10:04:58.633Z,12.00
2023-04-23T10:07:33.828Z,12.20
2023-04-23T10:10:02.868Z,17.75
2023-04-23T10:12:52.129Z,17.40
2023-04-23T10:15:20.683Z,13.20
2023-04-23T10:17:52.048Z,15.00
2023-04-23T10:20:23.246Z,13.00
2023-04-23T10:22:55.314Z,15.00
2023-04-23T10:25:26.706Z,11.00
2023-04-23T10:27:57.282Z,15.00
2023-04-23T10:30:26.791Z,14.60
2023-04-23T10:32:58.419Z,16.00
2023-04-23T10:35:27.972Z,15.80
2023-04-23T10:37:57.224Z,15.20
2023-04-23T10:40:33.519Z,15.00
2023-04-23T10:43:02.579Z,16.00
2023-04-23T10:45:32.962Z,16.00
2023-04-23T10:48:04.655Z,14.20
2023-04-23T10:50:38.113Z,15.00
2023-04-23T10:53:20.440Z,15.80
2023-04-23T10:55:49.415Z,12.40
2023-04-23T10:58:18.115Z,14.40
2023-04-23T11:00:47.740Z,18.25
2023-04-23T11:03:32.127Z,12.40
2023-04-23T11:06:03.410Z,14.80
2023-04-23T11:08:33.344Z,15.00
2023-04-23T11:11:04.034Z,14.75
2023-04-23T11:13:32.762Z,13.20
2023-04-23T11:16:15.742Z,15.20
2023-04-23T11:18:59.665Z,16.00
2023-04-23T11:22:03.349Z,16.75
2023-04-23T11:24:34.305Z,16.00
2023-04-23T11:27:06.475Z,17.25
2023-04-23T11:29:35.233Z,18.00
2023-04-23T11:32:05.498Z,16.00
2023-04-23T11:34:36.483Z,14.00
2023-04-23T11:37:06.168Z,17.75
2023-04-23T11:39:34.725Z,15.25
2023-04-23T11:42:04.903Z,14.00
2023-04-23T11:44:33.854Z,14.75
2023-04-23T11:47:03.531Z,13.00
2023-04-23T11:49:32.299Z,18.50
2023-04-23T11:52:02.996Z,16.25
2023-04-23T11:54:31.532Z,15.25
2023-04-23T11:57:00.457Z,18.75
2023-04-23T11:59:30.185Z,16.75
2023-04-23T12:02:00.536Z,18.00
2023-04-23T12:04:31.527Z,15.75
2023-04-23T12:07:07.985Z,14.75
2023-04-23T12:09:47.266Z,17.25
2023-04-23T12:12:16.824Z,12.75
2023-04-23T12:14:45.385Z,15.50
2023-04-23T12:17:14.316Z,17.00
2023-04-23T12:19:45.737Z,16.00
2023-04-23T12:22:16.102Z,13.50
2023-04-23T12:24:51.449Z,15.75
2023-04-23T12:27:22.967Z,16.50
2023-04-23T12:30:01.065Z,15.75
2023-04-23T12:32:30.185Z,17.25
2023-04-23T12:35:00.160Z,15.25
2023-04-23T12:37:32.225Z,15.25
2023-04-23T12:40:00.880Z,11.50
2023-04-23T12:42:29.965Z,15.50
2023-04-23T12:45:07.414Z,15.50
2023-04-23T12:47:36.672Z,14.50
2023-04-23T12:50:06.732Z,13.50
2023-04-23T12:52:38.369Z,15.25
2023-04-23T12:55:07.707Z,14.50
2023-04-23T12:57:37.061Z,14.00
2023-04-23T13:00:06.629Z,14.00
2023-04-23T13:02:35.867Z,17.25
2023-04-23T13:05:05.626Z,17.75
2023-04-23T13:07:36.169Z,13.75
2023-04-23T13:10:05.757Z,14.25
2023-04-23T13:12:34.734Z,14.00
2023-04-23T13:15:03.550Z,16.00
2023-04-23T13:17:33.498Z,19.00
2023-04-23T13:20:02.268Z,15.00
2023-04-23T13:22:31.882Z,15.50
2023-04-23T13:25:02.071Z,11.25
2023-04-23T13:27:31.320Z,15.00
2023-04-23T13:30:00.005Z,18.00
2023-04-23T13:32:32.243Z,16.50
2023-04-23T13:35:04.113Z,17.25
2023-04-23T13:37:33.731Z,15.25
2023-04-23T13:40:03.926Z,14.50
2023-04-23T13:42:34.364Z,19.25
2023-04-23T13:45:05.148Z,18.25
2023-04-23T13:47:35.077Z,14.50
2023-04-23T13:50:06.836Z,17.50
2023-04-23T13:52:37.331Z,18.75
2023-04-23T13:55:09.615Z,16.75
2023-04-23T13:57:39.396Z,17.75
2023-04-23T14:00:09.227Z,16.25
2023-04-23T14:02:38.428Z,25.25
2023-04-23T14:05:09.077Z,15.75
2023-04-23T14:07:38.079Z,14.00
2023-04-23T14:10:09.198Z,14.00
2023-04-23T14:12:38.913Z,17.25
2023-04-23T14:15:08.593Z,14.25
2023-04-23T14:17:39.448Z,17.75
2023-04-23T14:20:09.337Z,17.25
2023-04-23T14:22:38.789Z,17.00
2023-04-23T14:25:15.518Z,14.00
2023-04-23T14:27:48.915Z,16.00
2023-04-23T14:30:20.871Z,14.75
2023-04-23T14:32:50.573Z,14.75
2023-04-23T14:35:24.551Z,16.25
2023-04-23T14:37:58.493Z,18.25
2023-04-23T14:40:28.583Z,14.75
2023-04-23T14:43:04.831Z,15.75
2023-04-23T14:45:42.880Z,15.25
2023-04-23T14:48:11.994Z,15.25
2023-04-23T14:50:40.608Z,17.25
2023-04-23T14:53:10.689Z,15.75
2023-04-23T14:55:43.292Z,15.25
2023-04-23T14:58:12.353Z,14.00
2023-04-23T15:00:41.167Z,14.75
2023-04-23T15:03:11.480Z,17.50
2023-04-23T15:05:41.786Z,15.00
2023-04-23T15:08:10.803Z,17.00
2023-04-23T15:10:41.048Z,16.25
2023-04-23T15:13:22.526Z,15.25
2023-04-23T15:15:53.377Z,15.75
2023-04-23T15:18:22.405Z,16.75
2023-04-23T15:20:51.092Z,13.75
2023-04-23T15:23:21.557Z,10.75
2023-04-23T15:25:52.389Z,16.00
2023-04-23T15:28:21.455Z,15.75
2023-04-23T15:30:50.407Z,16.50
2023-04-23T15:33:21.816Z,14.60
2023-04-23T15:35:51.197Z,14.75
2023-04-23T15:38:20.238Z,14.75
2023-04-23T15:40:49.848Z,15.50
2023-04-23T15:43:20.168Z,14.25
2023-04-23T15:45:50.216Z,14.50
2023-04-23T15:48:19.662Z,14.75
2023-04-23T15:50:48.379Z,15.25
2023-04-23T15:53:20.009Z,15.00
2023-04-23T15:55:48.917Z,13.50
2023-04-23T15:58:19.758Z,16.25
2023-04-23T16:00:48.770Z,15.00
2023-04-23T16:03:17.863Z,13.25
2023-04-23T16:05:48.372Z,15.50
2023-04-23T16:08:17.458Z,17.00
2023-04-23T16:10:46.149Z,14.40
2023-04-23T16:13:15.096Z,17.60
2023-04-23T16:15:45.428Z,17.00
2023-04-23T16:18:14.552Z,15.25
2023-04-23T16:20:43.268Z,13.80
2023-04-23T16:23:12.314Z,15.00
2023-04-23T16:25:41.357Z,14.00
2023-04-23T16:28:10.474Z,15.20
2023-04-23T16:30:39.107Z,15.40
2023-04-23T16:33:09.872Z,15.80
2023-04-23T16:35:39.929Z,15.00
2023-04-23T16:38:11.032Z,15.40
2023-04-23T16:40:40.522Z,16.50
2023-04-23T16:43:10.309Z,15.00
2023-04-23T16:45:39.844Z,18.00
2023-04-23T16:48:13.981Z,15.00
2023-04-23T16:50:43.255Z,17.00
2023-04-23T16:53:13.485Z,16.20
2023-04-23T16:55:42.499Z,15.60
2023-04-23T16:58:11.401Z,18.25
2023-04-23T17:00:40.028Z,17.75
2023-04-23T17:03:09.095Z,17.25
2023-04-23T17:05:41.038Z,17.75
2023-04-23T17:08:10.116Z,18.25
2023-04-23T17:10:38.780Z,17.75
2023-04-23T17:13:07.916Z,14.25
2023-04-23T17:15:36.591Z,19.75
2023-04-23T17:18:05.939Z,17.50
2023-04-23T17:20:35.383Z,20.00
2023-04-23T17:23:05.598Z,17.50
2023-04-23T17:25:34.119Z,20.50
2023-04-23T17:28:03.014Z,19.00
2023-04-23T17:30:31.654Z,19.50
2023-04-23T17:33:00.689Z,18.75
2023-04-23T17:35:29.432Z,22.75
2023-04-23T17:37:58.363Z,22.00
2023-04-23T17:40:28.413Z,12.00
2023-04-23T17:42:57.455Z,23.75
2023-04-23T17:45:26.265Z,25.25
2023-04-23T17:47:55.294Z,24.75
2023-04-23T17:50:23.968Z,28.00
2023-04-23T17:52:54.166Z,25.75
2023-04-23T17:55:23.306Z,25.50
2023-04-23T17:57:53.651Z,26.75
2023-04-23T18:00:23.122Z,26.25
2023-04-23T18:02:52.233Z,25.25
2023-04-23T18:05:21.052Z,22.75
2023-04-23T18:07:50.026Z,24.50
2023-04-23T18:10:18.773Z,24.00
2023-04-23T18:12:47.871Z,23.75
2023-04-23T18:15:18.031Z,22.50
2023-04-23T18:17:47.580Z,18.75
2023-04-23T18:20:17.124Z,25.25
2023-04-23T18:22:46.290Z,21.75
2023-04-23T18:25:15.000Z,23.25
2023-04-23T18:27:43.954Z,20.50
2023-04-23T18:30:14.450Z,21.00
2023-04-23T18:32:49.695Z,29.00
2023-04-23T18:35:19.424Z,30.25
2023-04-23T18:37:50.336Z,33.50
2023-04-23T18:40:19.076Z,34.75
2023-04-23T18:42:47.931Z,31.75
2023-04-23T18:45:16.820Z,33.50
2023-04-23T18:47:57.634Z,31.75
2023-04-23T18:50:38.610Z,33.50
2023-04-23T18:53:07.759Z,31.25
2023-04-23T18:55:37.094Z,33.00
2023-04-23T18:58:06.124Z,29.50
2023-04-23T19:00:34.907Z,31.00
2023-04-23T19:03:15.224Z,29.25
2023-04-23T19:05:48.552Z,28.75
2023-04-23T19:08:17.686Z,24.50
2023-04-23T19:10:46.429Z,26.25
2023-04-23T19:13:15.447Z,18.50
2023-04-23T19:15:44.133Z,24.00
2023-04-23T19:18:14.445Z,23.50
2023-04-23T19:20:42.961Z,21.75
2023-04-23T19:23:12.336Z,26.00
2023-04-23T19:25:40.944Z,24.75
2023-04-23T19:28:10.080Z,24.00
2023-04-23T19:30:39.013Z,24.25
2023-04-23T19:33:08.062Z,22.50
2023-04-23T19:35:40.052Z,24.25
2023-04-23T19:38:10.038Z,24.75
2023-04-23T19:40:38.679Z,21.00
2023-04-23T19:43:07.645Z,23.00
2023-04-23T19:45:37.265Z,23.00
2023-04-23T19:48:08.164Z,27.75
2023-04-23T19:50:38.286Z,23.00
2023-04-23T19:53:07.258Z,28.50
2023-04-23T19:55:36.111Z,28.25
2023-04-23T19:58:06.560Z,25.50
2023-04-23T20:00:39.508Z,21.75
2023-04-23T20:03:09.581Z,26.75
2023-04-23T20:05:39.662Z,23.00
2023-04-23T20:08:15.211Z,23.00
2023-04-23T20:10:44.599Z,26.75
2023-04-23T20:13:13.596Z,22.25
2023-04-23T20:15:42.274Z,26.25
2023-04-23T20:18:11.661Z,27.00
2023-04-23T20:20:42.897Z,26.75
2023-04-23T20:23:12.188Z,29.75
2023-04-23T20:25:41.066Z,29.50
2023-04-23T20:28:11.856Z,26.75
2023-04-23T20:30:40.578Z,29.25
2023-04-23T20:33:10.506Z,28.75
2023-04-23T20:35:41.978Z,30.00
2023-04-23T20:38:10.937Z,29.75
2023-04-23T20:40:39.777Z,29.75
2023-04-23T20:43:08.709Z,31.50
2023-04-23T20:45:37.503Z,31.00
2023-04-23T20:48:06.698Z,26.50
2023-04-23T20:50:35.323Z,24.25
2023-04-23T20:53:05.652Z,21.75
2023-04-23T20:55:34.354Z,27.50
2023-04-23T20:58:03.264Z,25.50
2023-04-23T21:00:32.070Z,29.75
2023-04-23T21:03:01.098Z,29.00
2023-04-23T21:05:30.049Z,33.25
2023-04-23T21:07:59.302Z,32.50
2023-04-23T21:10:29.351Z,31.25
2023-04-23T21:12:58.568Z,25.75
2023-04-23T21:15:27.355Z,25.50
2023-04-23T21:17:56.584Z,28.00
2023-04-23T21:20:25.256Z,26.75
2023-04-23T21:22:54.349Z,22.75
2023-04-23T21:25:22.945Z,26.50
2023-04-23T21:27:53.832Z,24.75
2023-04-23T21:30:31.055Z,27.75
2023-04-23T21:32:59.989Z,17.50
2023-04-23T21:35:28.682Z,15.50
2023-04-23T21:37:57.601Z,25.50
2023-04-23T21:40:26.383Z,23.25
2023-04-23T21:42:56.869Z,21.75
2023-04-23T21:45:25.474Z,27.25
2023-04-23T21:47:56.928Z,26.50
2023-04-23T21:50:26.142Z,26.25
2023-04-23T21:52:58.448Z,24.00
2023-04-23T21:55:29.206Z,22.25
2023-04-23T21:58:15.846Z,23.25
2023-04-23T22:00:47.992Z,23.75
2023-04-23T22:03:30.445Z,23.75
2023-04-23T22:06:08.320Z,18.00
2023-04-23T22:08:39.486Z,21.25
2023-04-23T22:11:09.147Z,23.50
2023-04-23T22:13:39.548Z,22.25
2023-04-23T22:16:20.301Z,18.75
2023-04-23T22:18:53.780Z,19.75
2023-04-23T22:21:22.558Z,21.00
2023-04-23T22:23:51.568Z,20.00
2023-04-23T22:26:20.137Z,19.50
2023-04-23T22:28:50.379Z,19.75
2023-04-23T22:31:19.414Z,22.50
2023-04-23T22:33:48.361Z,18.50
2023-04-23T22:36:16.955Z,21.50
2023-04-23T22:38:46.029Z,15.50
2023-04-23T22:41:14.861Z,22.50
2023-04-23T22:43:44.252Z,22.25
2023-04-23T22:46:14.308Z,24.75
2023-04-23T22:48:44.826Z,20.50
2023-04-23T22:51:13.555Z,24.50
2023-04-23T22:53:42.398Z,20.25
2023-04-23T22:56:11.107Z,18.50
2023-04-23T22:58:40.202Z,17.25
2023-04-23T23:01:08.836Z,16.50
2023-04-23T23:03:39.268Z,14.75
2023-04-23T23:06:07.959Z,18.25
2023-04-23T23:08:36.848Z,14.75
2023-04-23T23:11:05.609Z,18.80
2023-04-23T23:13:34.527Z,16.50
2023-04-23T23:16:05.930Z,16.75
2023-04-23T23:18:34.921Z,17.50
2023-04-23T23:21:05.678Z,15.50
2023-04-23T23:23:34.648Z,16.50
2023-04-23T23:26:03.364Z,17.00
2023-04-23T23:28:32.282Z,19.00
2023-04-23T23:31:01.430Z,19.75
2023-04-23T23:33:30.467Z,18.00
2023-04-23T23:35:59.237Z,17.50
2023-04-23T23:38:29.513Z,17.00
2023-04-23T23:40:58.168Z,14.00
2023-04-23T23:43:26.985Z,17.25
2023-04-23T23:45:55.643Z,17.25
2023-04-23T23:48:24.681Z,16.00
2023-04-23T23:50:53.261Z,15.25
2023-04-23T23:53:22.153Z,17.40
2023-04-23T23:55:52.157Z,14.50
2023-04-23T23:58:21.665Z,17.00
